createdAt,value
2018-04-08T00:02:11.270Z,8.97
2018-04-08T00:04:41.709Z,9.50
2018-04-08T00:07:11.274Z,8.50
2018-04-08T00:09:40.563Z,8.10
2018-04-08T00:12:10.100Z,8.60
2018-04-08T00:14:39.675Z,8.33
2018-04-08T00:17:09.215Z,8.73
2018-04-08T00:19:39.150Z,9.30
2018-04-08T00:22:08.694Z,8.27
2018-04-08T00:24:38.242Z,7.73
2018-04-08T00:27:07.835Z,7.90
2018-04-08T00:29:37.404Z,8.07
2018-04-08T00:32:06.912Z,7.53
2018-04-08T00:34:36.438Z,7.60
2018-04-08T00:37:05.987Z,7.80
2018-04-08T00:39:35.562Z,7.73
2018-04-08T00:42:04.921Z,8.87
2018-04-08T00:44:34.498Z,7.53
2018-04-08T00:47:04.122Z,8.27
2018-04-08T00:49:33.434Z,8.53
2018-04-08T00:52:02.946Z,7.40
2018-04-08T00:54:31.984Z,8.60
2018-04-08T00:57:01.565Z,8.40
2018-04-08T00:59:30.328Z,7.90
2018-04-08T01:01:59.062Z,7.80
2018-04-08T01:04:28.124Z,7.20
2018-04-08T01:06:57.130Z,7.40
2018-04-08T01:09:26.204Z,7.80
2018-04-08T01:11:55.300Z,7.60
2018-04-08T01:14:24.276Z,8.30
2018-04-08T01:16:53.181Z,7.50
2018-04-08T01:19:22.402Z,7.90
2018-04-08T01:21:51.993Z,7.10
2018-04-08T01:24:21.541Z,7.43
2018-04-08T01:26:51.480Z,7.47
2018-04-08T01:29:20.767Z,7.17
2018-04-08T01:31:50.231Z,7.20
2018-04-08T01:34:19.811Z,6.73
2018-04-08T01:36:49.571Z,7.00
2018-04-08T01:39:19.338Z,6.37
2018-04-08T01:41:48.939Z,7.10
2018-04-08T01:44:18.240Z,6.90
2018-04-08T01:46:48.132Z,6.80
2018-04-08T01:49:17.742Z,7.53
2018-04-08T01:51:47.303Z,6.83
2018-04-08T01:54:16.848Z,6.63
2018-04-08T01:56:46.410Z,7.10
2018-04-08T01:59:16.218Z,6.50
2018-04-08T02:01:46.093Z,7.10
2018-04-08T02:04:15.818Z,6.93
2018-04-08T02:06:45.345Z,6.50
2018-04-08T02:09:14.902Z,7.50
2018-04-08T02:11:44.414Z,7.00
2018-04-08T02:14:13.996Z,6.67
2018-04-08T02:16:43.558Z,7.53
2018-04-08T02:19:13.199Z,6.50
2018-04-08T02:21:42.705Z,8.00
2018-04-08T02:24:12.254Z,7.50
2018-04-08T02:26:42.193Z,7.57
2018-04-08T02:29:11.698Z,6.87
2018-04-08T02:31:41.257Z,6.70
2018-04-08T02:34:10.822Z,6.67
2018-04-08T02:36:40.340Z,6.67
2018-04-08T02:39:10.085Z,7.10
2018-04-08T02:41:39.572Z,7.00
2018-04-08T02:44:09.095Z,6.37
2018-04-08T02:46:38.758Z,6.53
2018-04-08T02:49:08.283Z,6.67
2018-04-08T02:51:37.829Z,7.43
2018-04-08T02:54:07.406Z,7.07
2018-04-08T02:56:36.910Z,6.53
2018-04-08T02:59:06.449Z,6.80
2018-04-08T03:01:35.987Z,6.93
2018-04-08T03:04:05.537Z,6.87
2018-04-08T03:06:35.075Z,6.27
2018-04-08T03:09:03.958Z,6.30
2018-04-08T03:11:33.214Z,7.00
2018-04-08T03:14:02.766Z,5.90
2018-04-08T03:16:32.313Z,7.00
2018-04-08T03:19:01.853Z,6.20
2018-04-08T03:21:31.082Z,7.60
2018-04-08T03:24:00.438Z,6.07
2018-04-08T03:26:29.988Z,6.87
2018-04-08T03:28:59.590Z,6.63
2018-04-08T03:31:29.143Z,6.13
2018-04-08T03:33:58.742Z,6.50
2018-04-08T03:36:28.654Z,6.63
2018-04-08T03:38:58.324Z,6.50
2018-04-08T03:41:27.860Z,5.60
2018-04-08T03:43:57.870Z,6.50
2018-04-08T03:46:27.796Z,5.93
2018-04-08T03:48:58.207Z,5.40
2018-04-08T03:51:27.515Z,6.17
2018-04-08T03:53:57.182Z,6.30
2018-04-08T03:56:26.457Z,6.07
2018-04-08T03:58:56.035Z,6.60
2018-04-08T04:01:25.721Z,5.83
2018-04-08T04:03:55.353Z,5.77
2018-04-08T04:06:25.066Z,6.23
2018-04-08T04:08:54.596Z,5.37
2018-04-08T04:11:23.873Z,5.10
2018-04-08T04:13:53.537Z,4.60
2018-04-08T04:16:22.823Z,5.80
2018-04-08T04:19:03.463Z,5.60
2018-04-08T04:21:43.682Z,6.10
2018-04-08T04:38:02.643Z,5.17
2018-04-08T04:40:32.098Z,6.15
2018-04-08T04:43:02.212Z,5.93
2018-04-08T04:45:31.670Z,6.43
2018-04-08T04:48:01.394Z,5.97
2018-04-08T04:50:31.253Z,6.40
2018-04-08T04:53:00.723Z,5.27
2018-04-08T04:55:30.219Z,6.00
2018-04-08T04:57:59.682Z,5.93
2018-04-08T05:00:28.994Z,5.80
2018-04-08T05:02:58.285Z,5.53
2018-04-08T05:05:27.870Z,6.13
2018-04-08T05:07:57.700Z,5.35
2018-04-08T05:10:27.229Z,6.03
2018-04-08T05:12:56.766Z,6.40
2018-04-08T05:15:26.634Z,5.62
2018-04-08T05:17:56.175Z,5.97
2018-04-08T05:20:25.727Z,5.70
2018-04-08T05:22:55.262Z,6.07
2018-04-08T05:25:24.815Z,4.83
2018-04-08T05:27:54.313Z,5.60
2018-04-08T05:30:24.323Z,6.00
2018-04-08T05:32:53.836Z,6.03
2018-04-08T05:35:23.438Z,6.10
2018-04-08T05:37:52.971Z,5.40
2018-04-08T05:40:22.493Z,5.37
2018-04-08T05:42:52.282Z,4.87
2018-04-08T05:45:22.218Z,6.10
2018-04-08T05:47:51.735Z,5.73
2018-04-08T05:50:21.274Z,6.00
2018-04-08T05:52:50.601Z,5.43
2018-04-08T05:55:20.094Z,5.63
2018-04-08T05:57:49.626Z,5.30
2018-04-08T06:00:19.155Z,5.73
2018-04-08T06:02:48.681Z,6.07
2018-04-08T06:05:18.210Z,6.07
2018-04-08T06:07:47.886Z,6.07
2018-04-08T06:10:17.401Z,5.43
2018-04-08T06:12:46.930Z,5.40
2018-04-08T06:15:16.451Z,5.87
2018-04-08T06:17:46.352Z,5.70
2018-04-08T06:20:15.761Z,5.93
2018-04-08T06:22:45.341Z,6.13
2018-04-08T06:25:14.675Z,6.30
2018-04-08T06:27:43.957Z,5.77
2018-04-08T06:30:13.526Z,6.00
2018-04-08T06:32:43.260Z,6.57
2018-04-08T06:35:12.548Z,6.57
2018-04-08T06:37:41.840Z,6.40
2018-04-08T06:40:11.144Z,7.83
2018-04-08T06:42:40.378Z,7.17
2018-04-08T06:45:10.382Z,6.13
2018-04-08T06:47:39.667Z,5.73
2018-04-08T06:50:10.927Z,6.90
2018-04-08T06:52:40.463Z,5.67
2018-04-08T06:55:10.428Z,5.90
2018-04-08T06:57:39.703Z,5.67
2018-04-08T07:00:09.925Z,5.10
2018-04-08T07:02:39.538Z,5.70
2018-04-08T07:05:08.883Z,6.40
2018-04-08T07:07:38.392Z,6.17
2018-04-08T07:10:07.808Z,6.00
2018-04-08T07:12:37.096Z,5.80
2018-04-08T07:15:06.362Z,5.27
2018-04-08T07:17:37.047Z,6.60
2018-04-08T07:20:14.934Z,6.40
2018-04-08T07:22:44.447Z,6.90
2018-04-08T07:25:13.954Z,6.40
2018-04-08T07:27:43.530Z,5.93
2018-04-08T07:30:12.810Z,5.10
2018-04-08T07:32:43.364Z,5.93
2018-04-08T07:35:13.559Z,6.00
2018-04-08T07:37:43.115Z,5.83
2018-04-08T07:40:12.665Z,5.80
2018-04-08T07:42:42.934Z,5.73
2018-04-08T07:45:12.406Z,6.97
2018-04-08T07:47:42.528Z,6.13
2018-04-08T07:50:13.381Z,6.03
2018-04-08T07:52:43.325Z,6.37
2018-04-08T07:55:13.018Z,6.27
2018-04-08T07:57:42.566Z,6.50
2018-04-08T08:00:12.483Z,7.20
2018-04-08T08:02:42.502Z,7.70
2018-04-08T08:05:12.566Z,7.67
2018-04-08T08:07:43.003Z,6.63
2018-04-08T08:10:13.274Z,7.20
2018-04-08T08:12:43.226Z,7.43
2018-04-08T08:15:12.810Z,7.67
2018-04-08T08:17:42.396Z,8.97
2018-04-08T08:20:12.011Z,6.77
2018-04-08T08:22:43.467Z,9.80
2018-04-08T08:25:17.210Z,7.57
2018-04-08T08:27:49.222Z,7.30
2018-04-08T08:30:19.292Z,7.33
2018-04-08T08:32:48.891Z,7.03
2018-04-08T08:35:18.474Z,8.27
2018-04-08T08:37:48.153Z,7.03
2018-04-08T08:40:17.808Z,7.93
2018-04-08T08:42:47.318Z,7.30
2018-04-08T08:45:16.990Z,7.50
2018-04-08T08:47:47.799Z,6.50
2018-04-08T08:50:18.091Z,6.70
2018-04-08T08:52:47.707Z,7.13
2018-04-08T08:55:18.615Z,7.17
2018-04-08T08:57:49.134Z,7.90
2018-04-08T09:00:18.686Z,6.50
2018-04-08T09:02:48.366Z,7.63
2018-04-08T09:05:17.994Z,7.63
2018-04-08T09:07:47.576Z,7.17
2018-04-08T09:10:17.577Z,8.00
2018-04-08T09:12:47.836Z,7.50
2018-04-08T09:15:16.845Z,8.17
2018-04-08T09:17:46.825Z,7.50
2018-04-08T09:20:22.207Z,8.60
2018-04-08T09:23:07.502Z,9.77
2018-04-08T09:25:41.457Z,8.67
2018-04-08T09:28:11.566Z,7.67
2018-04-08T09:30:41.309Z,8.33
2018-04-08T09:33:10.894Z,7.93
2018-04-08T09:35:40.521Z,8.50
2018-04-08T09:38:10.089Z,16.33
2018-04-08T09:40:39.679Z,9.47
2018-04-08T09:43:09.298Z,8.77
2018-04-08T09:45:39.021Z,7.90
2018-04-08T09:48:08.828Z,10.20
2018-04-08T09:50:38.598Z,9.60
2018-04-08T09:53:08.133Z,9.27
2018-04-08T09:55:37.440Z,8.50
2018-04-08T09:58:08.253Z,10.43
2018-04-08T10:03:26.870Z,9.00
2018-04-08T10:05:55.957Z,9.40
2018-04-08T10:08:25.825Z,9.10
2018-04-08T10:10:56.267Z,10.07
2018-04-08T10:13:25.628Z,10.17
2018-04-08T10:15:56.730Z,9.70
2018-04-08T10:18:28.900Z,10.03
2018-04-08T10:20:59.398Z,10.37
2018-04-08T10:23:29.434Z,10.53
2018-04-08T10:25:59.357Z,9.87
2018-04-08T10:28:31.076Z,10.63
2018-04-08T10:31:04.443Z,11.17
2018-04-08T10:33:34.589Z,10.50
2018-04-08T10:36:06.148Z,10.63
2018-04-08T10:38:35.961Z,11.53
2018-04-08T10:41:05.466Z,9.87
2018-04-08T10:43:35.119Z,9.43
2018-04-08T10:46:05.981Z,10.63
2018-04-08T10:48:35.446Z,9.50
2018-04-08T10:51:04.802Z,9.70
2018-04-08T10:53:34.468Z,11.40
2018-04-08T10:56:04.144Z,10.73
2018-04-08T10:58:33.703Z,9.83
2018-04-08T11:01:03.785Z,9.67
2018-04-08T11:03:33.410Z,8.53
2018-04-08T11:06:03.019Z,8.10
2018-04-08T11:08:32.646Z,11.37
2018-04-08T11:11:02.043Z,10.37
2018-04-08T11:13:31.550Z,9.30
2018-04-08T11:16:04.840Z,10.20
2018-04-08T11:18:34.794Z,11.70
2018-04-08T11:21:04.863Z,11.33
2018-04-08T11:23:34.484Z,12.40
2018-04-08T11:26:11.137Z,10.50
2018-04-08T11:28:40.680Z,11.03
2018-04-08T11:31:10.648Z,10.83
2018-04-08T11:33:40.384Z,10.60
2018-04-08T11:36:10.016Z,9.90
2018-04-08T11:38:39.534Z,9.70
2018-04-08T11:41:09.205Z,11.30
2018-04-08T11:43:39.028Z,10.67
2018-04-08T11:46:08.730Z,10.20
2018-04-08T11:48:38.849Z,8.87
2018-04-08T11:51:09.284Z,9.70
2018-04-08T11:56:49.645Z,7.93
2018-04-08T11:59:19.861Z,9.23
2018-04-08T12:01:49.346Z,9.10
2018-04-08T12:04:18.931Z,9.43
2018-04-08T12:06:48.511Z,6.93
2018-04-08T12:09:18.196Z,10.43
2018-04-08T12:11:47.790Z,9.60
2018-04-08T12:14:17.768Z,9.50
2018-04-08T12:16:47.561Z,10.37
2018-04-08T12:19:17.020Z,9.13
2018-04-08T12:22:03.007Z,9.30
2018-04-08T12:24:32.858Z,8.77
2018-04-08T12:27:16.549Z,8.70
2018-04-08T12:29:58.251Z,9.03
2018-04-08T12:32:28.839Z,6.50
2018-04-08T12:35:00.416Z,8.40
2018-04-08T12:37:30.743Z,9.33
2018-04-08T12:40:00.465Z,8.93
2018-04-08T12:42:30.589Z,8.93
2018-04-08T12:45:00.490Z,7.77
2018-04-08T12:47:31.327Z,8.30
2018-04-08T12:50:01.204Z,8.60
2018-04-08T12:52:31.364Z,9.07
2018-04-08T12:55:05.364Z,8.30
2018-04-08T12:57:34.944Z,8.00
2018-04-08T13:00:03.818Z,8.10
2018-04-08T13:02:33.398Z,6.90
2018-04-08T13:05:03.050Z,7.80
2018-04-08T13:07:33.499Z,7.67
2018-04-08T13:10:03.774Z,6.80
2018-04-08T13:12:33.563Z,8.70
2018-04-08T13:15:03.853Z,7.73
2018-04-08T13:20:44.203Z,7.60
2018-04-08T13:23:13.851Z,7.60
2018-04-08T13:25:43.930Z,6.97
2018-04-08T13:28:13.375Z,6.30
2018-04-08T13:30:42.867Z,7.10
2018-04-08T13:33:15.381Z,5.67
2018-04-08T13:35:44.843Z,6.37
2018-04-08T13:38:39.325Z,5.30
2018-04-08T13:41:08.851Z,5.07
2018-04-08T13:43:51.279Z,5.20
2018-04-08T13:46:23.631Z,5.37
2018-04-08T13:48:53.586Z,6.03
2018-04-08T13:51:23.913Z,5.97
2018-04-08T13:53:55.209Z,5.67
2018-04-08T13:56:25.202Z,5.47
2018-04-08T13:58:54.914Z,5.27
2018-04-08T14:01:25.819Z,5.80
2018-04-08T14:03:55.563Z,4.97
2018-04-08T14:06:24.982Z,4.20
2018-04-08T14:08:54.524Z,6.27
2018-04-08T14:11:24.048Z,4.60
2018-04-08T14:13:53.696Z,3.90
2018-04-08T14:16:23.786Z,4.57
2018-04-08T14:18:53.720Z,5.03
2018-04-08T14:21:25.405Z,4.20
2018-04-08T14:23:55.352Z,4.23
2018-04-08T14:26:25.232Z,4.27
2018-04-08T14:31:34.607Z,4.43
2018-04-08T14:34:04.304Z,4.80
2018-04-08T14:36:33.560Z,4.43
2018-04-08T14:39:03.935Z,4.73
2018-04-08T14:41:34.272Z,4.50
2018-04-08T14:44:23.330Z,3.80
2018-04-08T14:46:56.168Z,5.40
2018-04-08T14:49:26.852Z,4.80
2018-04-08T14:51:56.648Z,4.90
2018-04-08T14:54:26.615Z,5.10
2018-04-08T14:56:57.332Z,4.53
2018-04-08T14:59:26.820Z,5.20
2018-04-08T15:02:03.694Z,4.37
2018-04-08T15:04:36.133Z,4.33
2018-04-08T15:13:26.374Z,4.93
2018-04-08T15:15:55.712Z,4.47
2018-04-08T15:18:25.176Z,4.57
2018-04-08T15:20:54.891Z,4.47
2018-04-08T15:23:24.236Z,5.10
2018-04-08T15:25:54.604Z,4.70
2018-04-08T15:28:24.423Z,4.20
2018-04-08T15:30:54.187Z,3.60
2018-04-08T15:33:23.341Z,4.37
2018-04-08T15:35:53.638Z,4.10
2018-04-08T15:38:24.468Z,4.37
2018-04-08T15:40:55.333Z,4.07
2018-04-08T15:43:25.018Z,3.83
2018-04-08T15:45:54.424Z,4.77
2018-04-08T15:48:23.979Z,4.10
2018-04-08T15:50:56.567Z,4.10
2018-04-08T15:53:28.148Z,3.87
2018-04-08T15:56:00.030Z,3.73
2018-04-08T15:58:37.477Z,4.20
2018-04-08T16:01:08.000Z,3.57
2018-04-08T16:03:38.002Z,3.30
2018-04-08T16:06:08.487Z,3.80
2018-04-08T16:08:38.564Z,3.93
2018-04-08T16:11:08.915Z,3.47
2018-04-08T16:13:42.118Z,3.30
2018-04-08T16:16:12.982Z,4.63
2018-04-08T16:18:43.660Z,3.20
2018-04-08T16:21:14.098Z,4.00
2018-04-08T16:23:44.684Z,2.97
2018-04-08T16:26:15.047Z,2.83
2018-04-08T16:28:44.723Z,3.20
2018-04-08T16:31:14.177Z,3.00
2018-04-08T16:33:43.454Z,4.63
2018-04-08T16:36:12.699Z,3.10
2018-04-08T16:38:43.138Z,3.30
2018-04-08T16:41:12.599Z,3.03
2018-04-08T16:43:42.775Z,2.90
2018-04-08T16:46:14.220Z,2.80
2018-04-08T16:48:43.696Z,2.83
2018-04-08T16:51:14.099Z,3.23
2018-04-08T16:53:43.328Z,3.57
2018-04-08T16:56:15.524Z,3.67
2018-04-08T16:58:45.969Z,3.33
2018-04-08T17:01:16.006Z,3.30
2018-04-08T17:03:47.546Z,3.30
2018-04-08T17:06:17.111Z,3.50
2018-04-08T17:08:46.602Z,3.00
2018-04-08T17:11:16.059Z,2.70
2018-04-08T17:13:54.872Z,3.10
2018-04-08T17:16:24.461Z,3.00
2018-04-08T17:18:53.894Z,3.23
2018-04-08T17:21:23.342Z,3.43
2018-04-08T17:23:58.344Z,2.57
2018-04-08T17:26:27.998Z,2.87
2018-04-08T17:28:57.229Z,2.97
2018-04-08T17:31:26.713Z,4.03
2018-04-08T17:33:55.991Z,4.07
2018-04-08T17:36:25.644Z,4.40
2018-04-08T17:38:55.144Z,5.17
2018-04-08T17:41:36.018Z,4.87
2018-04-08T17:44:05.251Z,4.57
2018-04-08T17:46:35.515Z,4.47
2018-04-08T17:49:04.988Z,3.73
2018-04-08T17:51:50.611Z,4.43
2018-04-08T17:54:21.863Z,4.10
2018-04-08T17:56:52.302Z,5.70
2018-04-08T17:59:41.896Z,6.53
2018-04-08T18:02:13.219Z,4.70
2018-04-08T18:04:42.587Z,4.40
2018-04-08T18:07:12.172Z,4.20
2018-04-08T18:09:48.693Z,4.13
2018-04-08T18:12:17.978Z,3.40
2018-04-08T18:14:48.532Z,4.00
2018-04-08T18:17:18.319Z,3.20
2018-04-08T18:19:47.740Z,4.50
2018-04-08T18:25:21.456Z,4.03
2018-04-08T18:27:51.050Z,5.23
2018-04-08T18:30:20.811Z,4.20
2018-04-08T18:32:50.624Z,3.77
2018-04-08T18:35:21.657Z,4.20
2018-04-08T18:37:51.315Z,3.93
2018-04-08T18:40:20.752Z,3.90
2018-04-08T18:42:51.999Z,4.17
2018-04-08T18:45:24.160Z,4.20
2018-04-08T18:47:55.653Z,3.70
2018-04-08T18:50:29.831Z,3.60
2018-04-08T18:55:42.765Z,3.73
2018-04-08T19:01:10.650Z,3.87
2018-04-08T19:06:17.152Z,4.80
2018-04-08T19:11:46.150Z,4.50
2018-04-08T19:14:16.437Z,4.50
2018-04-08T19:16:47.497Z,4.20
2018-04-08T19:19:26.164Z,4.13
2018-04-08T19:22:01.555Z,4.50
2018-04-08T19:27:09.756Z,4.50
2018-04-08T19:29:41.897Z,4.90
2018-04-08T19:32:19.229Z,4.43
2018-04-08T19:34:53.177Z,4.73
2018-04-08T19:37:26.214Z,4.20
2018-04-08T19:39:56.494Z,4.37
2018-04-08T19:51:50.174Z,4.53
2018-04-08T19:54:26.206Z,4.50
2018-04-08T20:03:01.888Z,4.07
2018-04-08T20:08:51.402Z,4.93
2018-04-08T20:14:36.548Z,4.80
2018-04-08T20:17:25.836Z,4.43
2018-04-08T20:19:56.912Z,4.40
2018-04-08T20:22:27.059Z,4.30
2018-04-08T20:25:00.494Z,4.73
2018-04-08T20:27:30.016Z,5.90
2018-04-08T20:29:59.732Z,4.77
2018-04-08T20:32:30.136Z,4.50
2018-04-08T20:34:59.706Z,4.73
2018-04-08T20:37:29.433Z,4.53
2018-04-08T20:39:59.001Z,5.03
2018-04-08T20:42:28.746Z,5.17
2018-04-08T20:44:58.657Z,5.30
2018-04-08T20:47:28.849Z,5.10
2018-04-08T20:49:58.301Z,5.80
2018-04-08T20:52:27.921Z,4.67
2018-04-08T20:55:02.028Z,4.23
2018-04-08T20:57:32.138Z,5.60
2018-04-08T21:00:02.113Z,5.00
2018-04-08T21:02:33.198Z,4.43
2018-04-08T21:13:21.926Z,5.97
2018-04-08T21:15:51.787Z,4.60
2018-04-08T21:18:21.571Z,5.10
2018-04-08T21:20:52.009Z,5.37
2018-04-08T21:23:21.694Z,4.93
2018-04-08T21:25:51.423Z,4.13
2018-04-08T21:28:20.746Z,5.33
2018-04-08T21:33:28.162Z,4.90
2018-04-08T21:35:57.812Z,4.30
2018-04-08T21:38:27.462Z,4.53
2018-04-08T21:40:57.717Z,4.70
2018-04-08T21:43:27.636Z,5.07
2018-04-08T21:45:57.505Z,4.80
2018-04-08T21:48:28.040Z,4.93
2018-04-08T21:50:58.270Z,4.70
2018-04-08T21:53:27.236Z,5.50
2018-04-08T21:55:56.709Z,4.97
2018-04-08T21:58:26.153Z,5.43
2018-04-08T22:00:55.634Z,5.07
2018-04-08T22:03:25.283Z,4.30
2018-04-08T22:05:54.676Z,4.73
2018-04-08T22:08:24.256Z,4.80
2018-04-08T22:10:53.850Z,5.33
2018-04-08T22:13:23.508Z,5.17
2018-04-08T22:15:53.015Z,5.63
2018-04-08T22:18:22.782Z,4.60
2018-04-08T22:20:52.339Z,5.03
2018-04-08T22:23:21.969Z,4.80
2018-04-08T22:25:51.479Z,4.70
2018-04-08T22:28:21.052Z,4.20
2018-04-08T22:30:50.663Z,4.53
2018-04-08T22:33:20.146Z,5.17
2018-04-08T22:35:49.322Z,4.40
2018-04-08T22:38:18.866Z,4.37
2018-04-08T22:40:48.538Z,4.43
